This is the latest recevied weather packets stored in our database for station/object S56OA-13. If no packets are shown the sender has not sent any weather packets the latest 10 day(s).
| Time | Temp. | Humidity | Pressure | Rain* | Wind** | Luminosity | Snow |
|---|---|---|---|---|---|---|---|
| 1788539238 | 29.44° C | 43% | 914.7 hPa | - | - | - | - |
| 1788537436 | 32.22° C | 42% | 924.3 hPa | - | - | - | - |
| 1788535635 | 33.89° C | 42% | 932.2 hPa | - | - | - | - |
| 1788533833 | 33.89° C | 42% | 932.3 hPa | - | - | - | - |
| 1788532032 | 35° C | 41% | 936.5 hPa | - | - | - | - |
| 1788530231 | 34.44° C | 42% | 934.1 hPa | - | - | - | - |
| 1788528430 | 36.67° C | 39% | 935.1 hPa | - | - | - | - |
| 1788526628 | 38.33° C | 37% | 940.6 hPa | - | - | - | - |
| 1788524827 | 37.22° C | 38% | 937 hPa | - | - | - | - |
| 1788523025 | 35.56° C | 39% | 933.8 hPa | - | - | - | - |
| 1788521224 | 33.89° C | 40% | 926.5 hPa | - | - | - | - |
| 1788519422 | 31.67° C | 41% | 920 hPa | - | - | - | - |
| 1788517620 | 32.22° C | 40% | 920.7 hPa | - | - | - | - |
| 1788515819 | 32.78° C | 40% | 922.2 hPa | - | - | - | - |
| 1788514017 | 32.22° C | 40% | 919.7 hPa | - | - | - | - |
| 1788512216 | 31.67° C | 40% | 917.8 hPa | - | - | - | - |
| 1788510414 | 31.11° C | 40% | 914.9 hPa | - | - | - | - |
| 1788508613 | 30° C | 40% | 912.2 hPa | - | - | - | - |
| 1788506811 | 28.89° C | 40% | 907.4 hPa | - | - | - | - |
| 1788505009 | 27.78° C | 39% | 902.9 hPa | - | - | - | - |
| 1788503208 | 24.44° C | 40% | 891.7 hPa | - | - | - | - |
| 1788501407 | 21.11° C | 40% | 881.5 hPa | - | - | - | - |
| 1788499605 | 17.78° C | 41% | 870.4 hPa | - | - | - | - |
| 1788497786 | 17.78° C | 41% | 868.8 hPa | - | - | - | - |
| 1788495985 | 18.33° C | 41% | 871.4 hPa | - | - | - | - |
* Rain since midnight (hover to see other rain measurements)
** Current wind speed in m/s (hover to see current wind gust speed)